Time;durP1;ratioP1;P1;durP2;ratioP2;P2;SDS_P1;SDS_P2;PMS_P1;PMS_P2;Temp;Humidity;BMP_temperature;BMP_pressure;BME280_temperature;BME280_humidity;BME280_pressure;Samples;Min_cycle;Max_cycle;Signal;HPM_P1;HPM_P2
2023/04/01 00:01:58;;;;;;;3.13;1.70;;;8.70;38.80;;;;;;8396126;28;20223;-71
2023/04/01 00:05:59;;;;;;;3.67;1.90;;;8.60;99.90;;;;;;8413239;28;20218;-71
2023/04/01 00:10:00;;;;;;;4.00;1.73;;;8.60;99.90;;;;;;8394114;28;20196;-70
2023/04/01 00:14:01;;;;;;;2.17;1.43;;;8.60;99.90;;;;;;8396164;28;20203;-70
2023/04/01 00:18:02;;;;;;;4.80;2.03;;;8.60;99.90;;;;;;8414657;28;20311;-71
2023/04/01 00:22:03;;;;;;;2.57;1.57;;;8.60;99.90;;;;;;8391108;28;20195;-71
2023/04/01 00:26:05;;;;;;;4.50;1.70;;;8.50;99.90;;;;;;8389369;28;20766;-70
2023/04/01 00:30:07;;;;;;;4.63;2.23;;;8.50;99.90;;;;;;8390711;28;20193;-72
2023/04/01 00:34:07;;;;;;;3.00;2.07;;;8.40;99.90;;;;;;8392303;28;20205;-72
2023/04/01 00:38:10;;;;;;;8.93;2.20;;;8.30;99.90;;;;;;8394721;28;20218;-70
2023/04/01 00:42:12;;;;;;;4.80;2.20;;;8.30;99.90;;;;;;8408971;28;20184;-69
2023/04/01 00:46:12;;;;;;;4.50;2.20;;;8.20;99.90;;;;;;8383559;28;20212;-69
2023/04/01 00:50:13;;;;;;;4.73;2.13;;;8.20;99.90;;;;;;8389490;28;20184;-69
2023/04/01 00:54:16;;;;;;;4.87;2.60;;;8.30;99.90;;;;;;8392219;28;20210;-70
2023/04/01 00:58:21;;;;;;;4.73;2.20;;;8.30;99.90;;;;;;8390537;28;20200;-69
2023/04/01 01:02:22;;;;;;;6.07;2.53;;;8.30;99.90;;;;;;8388865;28;20578;-69
2023/04/01 01:06:43;;;;;;;5.93;2.80;;;8.30;99.90;;;;;;8406982;28;20234;-68
2023/04/01 01:10:49;;;;;;;5.53;2.17;;;8.30;99.90;;;;;;8390429;28;20323;-69
2023/04/01 01:15:05;;;;;;;4.97;2.47;;;8.30;99.90;;;;;;8394457;28;20200;-70
2023/04/01 01:19:26;;;;;;;7.40;2.30;;;8.40;99.90;;;;;;8391318;28;20196;-70
2023/04/01 01:23:50;;;;;;;7.03;2.07;;;8.40;99.90;;;;;;8390604;28;20198;-70
2023/04/01 01:28:19;;;;;;;7.23;2.33;;;8.50;99.90;;;;;;8392791;28;20276;-71
2023/04/01 01:33:02;;;;;;;7.23;2.47;;;8.50;99.90;;;;;;8382850;28;20211;-70
2023/04/01 01:37:09;;;;;;;3.13;1.90;;;8.50;99.90;;;;;;8388987;28;20212;-71
2023/04/01 01:41:12;;;;;;;5.23;2.43;;;8.60;99.90;;;;;;8392667;28;20189;-71
2023/04/01 01:45:17;;;;;;;7.60;2.27;;;8.60;99.90;;;;;;8394403;28;20560;-71
2023/04/01 01:49:20;;;;;;;5.00;2.23;;;8.60;99.90;;;;;;8412094;28;20192;-70
2023/04/01 01:53:20;;;;;;;3.40;1.50;;;8.60;99.90;;;;;;8393248;28;20196;-72
2023/04/01 01:57:34;;;;;;;2.57;1.60;;;8.60;99.90;;;;;;8394952;28;20233;-71
2023/04/01 02:01:40;;;;;;;4.40;1.80;;;8.60;99.90;;;;;;8391114;28;20280;-69
2023/04/01 02:05:41;;;;;;;7.03;2.27;;;8.60;99.90;;;;;;8412279;28;20226;-68
2023/04/01 02:09:43;;;;;;;3.53;2.20;;;8.60;99.90;;;;;;8416841;28;20172;-69
2023/04/01 02:14:01;;;;;;;3.37;2.00;;;8.60;99.90;;;;;;8422043;28;20202;-70
2023/04/01 02:18:03;;;;;;;3.47;2.00;;;8.60;99.90;;;;;;8396419;28;20275;-70
2023/04/01 02:22:08;;;;;;;5.57;2.63;;;8.60;99.90;;;;;;8388285;28;20231;-70
2023/04/01 02:26:11;;;;;;;5.33;2.00;;;8.60;99.90;;;;;;8392470;28;20261;-71
2023/04/01 02:30:14;;;;;;;2.90;1.90;;;8.60;99.90;;;;;;8420177;28;20325;-70
2023/04/01 02:34:15;;;;;;;6.33;2.13;;;8.60;99.90;;;;;;8402431;28;20184;-69
2023/04/01 02:38:16;;;;;;;3.43;1.97;;;8.60;99.90;;;;;;8419396;28;20275;-71
2023/04/01 02:42:17;;;;;;;7.83;1.93;;;8.60;99.90;;;;;;8398611;28;20192;-70
2023/04/01 02:46:17;;;;;;;3.30;1.87;;;8.60;99.90;;;;;;8421355;28;20245;-70
2023/04/01 02:50:18;;;;;;;2.83;1.70;;;8.60;99.90;;;;;;8395955;28;20203;-69
2023/04/01 02:54:19;;;;;;;5.80;2.20;;;8.50;99.90;;;;;;8419791;28;20180;-70
2023/04/01 02:58:20;;;;;;;7.20;2.40;;;8.50;99.90;;;;;;8416096;28;20185;-70
2023/04/01 03:02:21;;;;;;;4.90;2.30;;;8.50;99.90;;;;;;8398311;28;20196;-70
2023/04/01 03:06:22;;;;;;;4.53;1.93;;;8.50;99.90;;;;;;8397337;28;20228;-70
2023/04/01 03:10:22;;;;;;;4.77;2.37;;;8.50;99.90;;;;;;8394533;28;20211;-70
2023/04/01 03:14:23;;;;;;;3.07;2.00;;;8.50;99.90;;;;;;8410967;28;20216;-70
2023/04/01 03:18:24;;;;;;;3.13;1.80;;;8.50;99.90;;;;;;8414517;28;20196;-71
2023/04/01 03:22:25;;;;;;;4.83;1.83;;;8.60;99.90;;;;;;8385648;28;20235;-70
2023/04/01 03:26:29;;;;;;;4.23;1.83;;;8.50;99.90;;;;;;8408442;28;20212;-69
2023/04/01 03:30:31;;;;;;;4.03;1.90;;;8.50;99.90;;;;;;8395407;28;20185;-70
2023/04/01 03:34:31;;;;;;;2.00;1.70;;;8.50;99.90;;;;;;8395272;28;20188;-70
2023/04/01 03:38:34;;;;;;;3.37;2.00;;;8.50;99.90;;;;;;8395958;28;20204;-70
2023/04/01 03:42:35;;;;;;;3.70;1.80;;;8.50;99.90;;;;;;8392298;28;20183;-70
2023/04/01 03:46:35;;;;;;;3.13;2.27;;;8.50;99.90;;;;;;8416841;28;20231;-69
2023/04/01 03:50:36;;;;;;;2.73;1.67;;;8.60;99.90;;;;;;8391308;28;20184;-69
2023/04/01 03:54:37;;;;;;;5.77;2.00;;;8.60;99.90;;;;;;8420017;28;20192;-69
2023/04/01 03:58:38;;;;;;;4.33;2.03;;;8.60;99.90;;;;;;8409517;28;20260;-70
2023/04/01 04:02:39;;;;;;;4.73;1.87;;;8.60;99.90;;;;;;8398813;28;20239;-69
2023/04/01 04:06:40;;;;;;;4.97;1.90;;;8.50;99.90;;;;;;8392961;28;20211;-70
2023/04/01 04:10:41;;;;;;;1.90;1.67;;;8.50;99.90;;;;;;8411271;28;20195;-71
2023/04/01 04:14:42;;;;;;;4.17;1.90;;;8.50;99.90;;;;;;8411323;28;20213;-70
2023/04/01 04:18:43;;;;;;;3.97;1.90;;;8.50;99.90;;;;;;8394767;28;20185;-70
2023/04/01 04:22:44;;;;;;;3.47;1.70;;;8.50;99.90;;;;;;8385887;28;20567;-70
2023/04/01 04:26:45;;;;;;;4.93;1.67;;;8.60;99.90;;;;;;8392218;28;20554;-69
2023/04/01 04:30:46;;;;;;;3.97;1.87;;;8.60;99.90;;;;;;8395165;28;20280;-70
2023/04/01 04:34:46;;;;;;;3.80;2.03;;;8.60;99.90;;;;;;8388942;28;20226;-69
2023/04/01 04:38:48;;;;;;;3.80;1.93;;;8.60;99.90;;;;;;8410069;28;20207;-70
2023/04/01 04:42:49;;;;;;;5.47;2.10;;;8.60;99.90;;;;;;8407951;28;20263;-70
2023/04/01 04:46:50;;;;;;;3.80;2.00;;;8.60;99.90;;;;;;8393394;28;20242;-70
2023/04/01 04:50:51;;;;;;;3.67;1.80;;;8.60;99.90;;;;;;8390313;28;20181;-70
2023/04/01 04:54:52;;;;;;;3.03;1.93;;;8.70;99.90;;;;;;8398649;28;20191;-70
2023/04/01 04:58:53;;;;;;;4.40;2.03;;;8.70;99.90;;;;;;8394876;28;20188;-69
2023/04/01 05:02:54;;;;;;;4.40;1.73;;;8.70;99.90;;;;;;8415556;28;20281;-71
2023/04/01 05:06:54;;;;;;;5.03;2.33;;;8.70;99.90;;;;;;8395184;28;20208;-71
2023/04/01 05:10:56;;;;;;;4.10;1.80;;;8.70;99.90;;;;;;8396016;28;20196;-71
2023/04/01 05:14:57;;;;;;;7.00;1.97;;;8.70;99.90;;;;;;8396217;28;20241;-71
2023/04/01 05:18:57;;;;;;;2.60;2.00;;;8.70;99.90;;;;;;8417411;28;20282;-71
2023/04/01 05:22:59;;;;;;;4.63;1.93;;;8.70;99.90;;;;;;8396747;28;20222;-72
2023/04/01 05:27:00;;;;;;;5.67;1.70;;;8.70;99.90;;;;;;8394489;28;20208;-70
2023/04/01 05:31:03;;;;;;;4.53;2.00;;;8.70;99.90;;;;;;8398421;28;20189;-72
2023/04/01 05:35:04;;;;;;;4.20;2.03;;;8.70;99.90;;;;;;8417629;28;20192;-71
2023/04/01 05:39:05;;;;;;;3.43;2.10;;;8.70;99.90;;;;;;8395260;28;20454;-72
2023/04/01 05:43:06;;;;;;;4.27;1.90;;;8.80;99.90;;;;;;8395111;28;20295;-71
2023/04/01 05:47:06;;;;;;;4.00;2.07;;;8.80;99.90;;;;;;8396080;28;20211;-71
2023/04/01 05:51:13;;;;;;;4.10;1.87;;;8.80;99.90;;;;;;8393046;28;20287;-72
2023/04/01 05:55:14;;;;;;;3.53;1.57;;;8.80;99.90;;;;;;8398576;28;20203;-72
2023/04/01 05:59:15;;;;;;;3.07;1.70;;;8.80;99.90;;;;;;8418650;28;20193;-72
2023/04/01 06:03:15;;;;;;;5.23;1.60;;;8.90;99.90;;;;;;8394884;28;20416;-72
2023/04/01 06:07:18;;;;;;;3.83;1.40;;;8.90;99.90;;;;;;8423205;28;20216;-71
2023/04/01 06:11:43;;;;;;;4.43;1.40;;;9.00;99.90;;;;;;8417491;28;20181;-72
2023/04/01 06:16:11;;;;;;;4.80;1.30;;;9.10;99.90;;;;;;8418102;28;20189;-73
2023/04/01 06:20:12;;;;;;;3.50;1.20;;;9.10;99.90;;;;;;8403405;28;20197;-73
2023/04/01 06:24:27;;;;;;;2.20;1.10;;;9.20;99.90;;;;;;8417875;28;20191;-73
2023/04/01 06:29:01;;;;;;;1.93;1.07;;;9.30;99.90;;;;;;8417369;28;20510;-72
2023/04/01 06:33:28;;;;;;;2.43;1.07;;;9.40;99.90;;;;;;8406267;28;20206;-73
2023/04/01 06:37:58;;;;;;;2.70;0.73;;;9.60;99.90;;;;;;8403021;28;20216;-73
2023/04/01 06:42:10;;;;;;;4.57;1.20;;;9.70;99.90;;;;;;8394669;28;20197;-72
2023/04/01 06:46:30;;;;;;;5.17;0.93;;;9.70;99.90;;;;;;8401332;28;20403;-71
2023/04/01 06:50:52;;;;;;;3.77;1.30;;;9.70;99.90;;;;;;8396896;28;20198;-73
2023/04/01 06:55:18;;;;;;;6.73;1.20;;;9.70;99.90;;;;;;8404189;28;20196;-73
2023/04/01 06:59:35;;;;;;;3.30;0.90;;;9.70;99.90;;;;;;8398779;28;20221;-71
2023/04/01 07:03:41;;;;;;;2.87;1.00;;;9.60;99.90;;;;;;8397980;28;20197;-73
2023/04/01 07:07:49;;;;;;;4.07;1.20;;;9.80;99.90;;;;;;8410183;28;20222;-71
2023/04/01 07:11:51;;;;;;;2.70;1.10;;;9.90;99.90;;;;;;8425039;28;20194;-72
2023/04/01 07:16:15;;;;;;;3.73;1.10;;;10.10;99.90;;;;;;8424528;28;20205;-72
2023/04/01 07:20:22;;;;;;;4.40;1.00;;;10.20;99.90;;;;;;8400643;28;20233;-71
2023/04/01 07:24:44;;;;;;;2.43;1.10;;;10.20;99.90;;;;;;8421334;28;20469;-71
2023/04/01 07:28:45;;;;;;;3.03;1.00;;;10.10;99.90;;;;;;8406404;28;20187;-72
2023/04/01 07:32:53;;;;;;;4.97;1.20;;;10.10;99.90;;;;;;8400753;28;20196;-71
2023/04/01 07:37:07;;;;;;;3.53;1.10;;;10.10;99.90;;;;;;8399698;28;20220;-71
2023/04/01 07:41:23;;;;;;;5.87;0.97;;;10.30;99.90;;;;;;8403491;28;20271;-70
2023/04/01 07:45:34;;;;;;;1.40;0.90;;;10.40;99.90;;;;;;8418050;28;20245;-71
2023/04/01 07:50:10;;;;;;;5.10;1.20;;;10.40;99.90;;;;;;8403178;28;20223;-71
2023/04/01 07:54:49;;;;;;;3.13;1.07;;;10.40;99.90;;;;;;8391240;28;20228;-72
2023/04/01 07:59:26;;;;;;;2.37;1.03;;;10.40;99.90;;;;;;8406045;28;20258;-72
2023/04/01 08:03:57;;;;;;;4.23;1.40;;;10.50;99.90;;;;;;8398365;28;20188;-72
2023/04/01 08:08:10;;;;;;;4.00;1.20;;;10.50;99.90;;;;;;8404349;28;20231;-71
2023/04/01 08:12:42;;;;;;;3.10;1.20;;;10.70;99.90;;;;;;8408455;28;20194;-72
2023/04/01 08:17:05;;;;;;;3.93;1.10;;;10.80;99.90;;;;;;8388911;28;20219;-72
2023/04/01 08:21:31;;;;;;;2.97;1.20;;;10.90;99.90;;;;;;8407641;28;20535;-72
2023/04/01 08:25:34;;;;;;;2.40;1.13;;;11.00;99.90;;;;;;8411172;28;20208;-73
2023/04/01 08:29:57;;;;;;;1.63;1.20;;;11.10;99.90;;;;;;8408605;28;20191;-72
2023/04/01 08:34:01;;;;;;;2.10;1.30;;;11.20;99.90;;;;;;8394736;28;20224;-71
2023/04/01 08:38:29;;;;;;;2.30;1.50;;;10.90;99.90;;;;;;8405424;28;20218;-71
2023/04/01 08:43:08;;;;;;;3.93;1.87;;;11.10;99.90;;;;;;8391884;28;20295;-71
2023/04/01 08:47:27;;;;;;;2.90;1.20;;;11.40;99.90;;;;;;8404335;28;20741;-70
2023/04/01 08:52:10;;;;;;;3.73;1.60;;;11.60;99.90;;;;;;8421559;28;20185;-72
2023/04/01 08:56:37;;;;;;;1.97;1.40;;;11.90;99.90;;;;;;8324243;28;20203;-71
2023/04/01 09:01:11;;;;;;;5.27;1.40;;;11.80;99.90;;;;;;8401802;28;20188;-72
2023/04/01 09:05:17;;;;;;;3.83;1.27;;;11.80;99.90;;;;;;8409286;28;20218;-71
2023/04/01 09:09:39;;;;;;;1.70;1.53;;;11.50;1.00;;;;;;8416635;28;20212;-71
2023/04/01 09:14:02;;;;;;;3.37;1.77;;;11.30;1.00;;;;;;8396554;28;20191;-70
2023/04/01 09:18:29;;;;;;;4.83;2.20;;;10.80;1.00;;;;;;8395002;28;20203;-71
2023/04/01 09:22:42;;;;;;;3.20;1.53;;;10.70;1.00;;;;;;8395199;28;20925;-71
2023/04/01 09:27:02;;;;;;;3.90;1.80;;;11.00;99.90;;;;;;8416437;28;20219;-72
2023/04/01 09:31:27;;;;;;;5.10;1.70;;;11.50;1.00;;;;;;8420489;28;20193;-71
2023/04/01 09:35:47;;;;;;;2.43;1.40;;;11.90;99.90;;;;;;8394743;28;20215;-71
2023/04/01 09:40:23;;;;;;;1.30;1.20;;;11.90;99.90;;;;;;8393288;28;20203;-71
2023/04/01 09:44:59;;;;;;;3.83;1.50;;;11.50;99.90;;;;;;8398329;28;20263;-71
2023/04/01 09:49:02;;;;;;;2.87;1.30;;;11.30;1.00;;;;;;8388439;28;20330;-70
2023/04/01 09:53:30;;;;;;;4.10;1.73;;;11.10;99.90;;;;;;8395429;28;20192;-71
2023/04/01 09:58:08;;;;;;;1.40;1.23;;;11.20;99.90;;;;;;8411810;28;20226;-71
2023/04/01 10:02:14;;;;;;;1.67;1.00;;;11.30;1.00;;;;;;8410395;28;20244;-71
2023/04/01 10:06:51;;;;;;;3.00;1.20;;;11.70;99.90;;;;;;8412154;28;20208;-71
2023/04/01 10:11:42;;;;;;;2.73;1.27;;;11.80;99.90;;;;;;8396393;28;20200;-71
2023/04/01 10:16:01;;;;;;;2.80;1.20;;;11.80;99.90;;;;;;8390890;28;20397;-71
2023/04/01 10:20:40;;;;;;;2.53;1.20;;;11.70;99.90;;;;;;8403624;28;20230;-71
2023/04/01 10:25:02;;;;;;;2.37;1.10;;;11.90;1.00;;;;;;8401609;28;20284;-73
2023/04/01 10:29:23;;;;;;;3.83;1.13;;;12.30;99.90;;;;;;8406756;28;20180;-72
2023/04/01 10:33:43;;;;;;;3.17;0.97;;;12.50;99.90;;;;;;8408653;28;20204;-72
2023/04/01 10:38:07;;;;;;;3.70;0.83;;;12.70;99.90;;;;;;8404914;28;20216;-72
2023/04/01 10:42:17;;;;;;;1.60;0.70;;;13.10;99.90;;;;;;8407574;28;20188;-71
2023/04/01 10:46:44;;;;;;;2.73;1.07;;;13.10;99.90;;;;;;8419150;28;20205;-71
2023/04/01 10:51:12;;;;;;;3.43;1.47;;;12.90;42.60;;;;;;8425809;28;20180;-72
2023/04/01 10:55:36;;;;;;;0.90;0.60;;;12.80;98.50;;;;;;8424935;28;20247;-71
2023/04/01 11:00:04;;;;;;;2.60;0.90;;;13.00;93.00;;;;;;8400053;28;20192;-71
2023/04/01 11:04:13;;;;;;;3.00;1.10;;;12.70;99.90;;;;;;8393202;28;20200;-72
2023/04/01 11:08:46;;;;;;;1.63;0.60;;;12.10;99.90;;;;;;8402260;28;20223;-71
2023/04/01 11:13:06;;;;;;;1.93;0.73;;;12.00;99.90;;;;;;8362003;28;20208;-71
2023/04/01 11:17:38;;;;;;;1.87;0.80;;;11.80;1.00;;;;;;8395465;28;20204;-70
2023/04/01 11:21:59;;;;;;;1.30;0.60;;;11.90;1.00;;;;;;8414992;28;20193;-70
2023/04/01 11:26:09;;;;;;;3.07;0.70;;;11.90;99.90;;;;;;8399183;28;20225;-70
2023/04/01 11:30:22;;;;;;;1.80;0.60;;;12.00;99.90;;;;;;8389997;28;20199;-72
2023/04/01 11:34:48;;;;;;;1.50;0.60;;;12.40;99.90;;;;;;8411224;28;20189;-73
2023/04/01 11:39:21;;;;;;;2.87;0.70;;;13.10;99.90;;;;;;8400805;28;20211;-72
2023/04/01 11:44:00;;;;;;;2.27;0.80;;;13.10;99.90;;;;;;8386704;28;20231;-72
2023/04/01 11:48:22;;;;;;;1.07;0.60;;;12.90;99.90;;;;;;8421257;28;20221;-71
2023/04/01 11:52:47;;;;;;;2.10;0.60;;;12.80;99.90;;;;;;8405279;28;20218;-71
2023/04/01 11:57:27;;;;;;;1.97;0.50;;;13.40;99.90;;;;;;8413987;28;20219;-72
2023/04/01 12:01:58;;;;;;;2.33;0.53;;;13.80;98.70;;;;;;8419009;28;20185;-71
2023/04/01 12:06:05;;;;;;;1.43;1.03;;;14.10;1.00;;;;;;8404195;28;20217;-72
2023/04/01 12:10:19;;;;;;;2.63;0.60;;;14.30;1.00;;;;;;8405631;28;20189;-72
2023/04/01 12:14:57;;;;;;;2.50;0.67;;;14.50;23.40;;;;;;8401786;28;20189;-72
2023/04/01 12:19:32;;;;;;;3.50;0.50;;;14.50;3.80;;;;;;8399674;28;20196;-72
2023/04/01 12:23:48;;;;;;;1.63;0.40;;;14.70;1.00;;;;;;8409720;28;20208;-73
2023/04/01 12:28:02;;;;;;;2.30;0.57;;;15.30;1.00;;;;;;8399610;28;20209;-73
2023/04/01 12:32:22;;;;;;;1.77;0.60;;;15.10;1.00;;;;;;8420402;28;20271;-71
2023/04/01 12:36:56;;;;;;;0.53;0.33;;;14.40;1.00;;;;;;8405964;28;20303;-70
2023/04/01 12:41:12;;;;;;;2.03;0.80;;;13.90;1.00;;;;;;8420777;28;20233;-71
2023/04/01 12:45:31;;;;;;;2.53;1.27;;;13.60;1.00;;;;;;8425446;28;20447;-72
2023/04/01 12:49:53;;;;;;;3.03;1.97;;;13.60;1.00;;;;;;8396770;28;20173;-71
2023/04/01 12:54:24;;;;;;;1.53;1.10;;;13.20;1.00;;;;;;8418568;28;20184;-71
2023/04/01 12:58:43;;;;;;;2.47;0.50;;;13.10;17.30;;;;;;8379420;28;20241;-71
2023/04/01 13:03:14;;;;;;;1.53;0.63;;;13.40;1.00;;;;;;8422139;28;20195;-71
2023/04/01 13:07:21;;;;;;;1.80;0.80;;;13.70;1.00;;;;;;8403183;28;20212;-72
2023/04/01 13:11:50;;;;;;;1.40;0.60;;;13.80;1.00;;;;;;8403736;28;20287;-72
2023/04/01 13:16:03;;;;;;;1.63;1.10;;;13.80;1.00;;;;;;8427786;28;20184;-72
2023/04/01 13:20:10;;;;;;;3.93;2.87;;;14.10;1.00;;;;;;8401790;28;20193;-73
2023/04/01 13:24:20;;;;;;;2.77;1.40;;;14.40;1.00;;;;;;8430457;28;20192;-73
2023/04/01 13:28:26;;;;;;;7.17;4.30;;;14.60;1.00;;;;;;8405136;28;20212;-73
2023/04/01 13:32:27;;;;;;;4.47;2.30;;;14.70;1.00;;;;;;8432512;28;20192;-72
2023/04/01 13:36:40;;;;;;;2.73;2.00;;;14.90;1.00;;;;;;8404740;28;20212;-72
2023/04/01 13:41:00;;;;;;;8.90;4.80;;;14.60;1.00;;;;;;8411379;28;20192;-73
2023/04/01 13:45:22;;;;;;;2.50;1.67;;;14.40;1.00;;;;;;8410761;28;20216;-73
2023/04/01 13:49:41;;;;;;;1.77;1.10;;;14.00;3.10;;;;;;8406266;28;20196;-73
2023/04/01 13:54:24;;;;;;;3.07;1.47;;;13.80;1.70;;;;;;8424735;28;20188;-72
2023/04/01 13:58:52;;;;;;;4.70;2.73;;;13.00;29.40;;;;;;8261710;28;20272;-72
2023/04/01 14:03:30;;;;;;;1.87;1.30;;;12.50;99.90;;;;;;8342702;28;20200;-73
2023/04/01 14:07:46;;;;;;;2.57;1.97;;;12.50;99.90;;;;;;8410683;28;20208;-73
2023/04/01 14:12:12;;;;;;;3.67;2.60;;;12.60;99.90;;;;;;8428957;28;20180;-73
2023/04/01 14:16:31;;;;;;;4.93;2.60;;;12.80;99.90;;;;;;8414395;28;20302;-72
2023/04/01 14:21:25;;;;;;;3.53;1.50;;;12.80;99.90;;;;;;8413127;28;20567;-72
2023/04/01 14:25:45;;;;;;;3.77;1.60;;;12.60;99.90;;;;;;8431028;28;20272;-72
2023/04/01 14:30:15;;;;;;;2.73;1.63;;;12.40;99.90;;;;;;8428748;28;20185;-72
2023/04/01 14:34:24;;;;;;;5.43;2.13;;;12.20;99.90;;;;;;8412606;28;20189;-72
2023/04/01 14:38:38;;;;;;;1.70;1.40;;;11.90;99.90;;;;;;8424245;28;20209;-71
2023/04/01 14:43:14;;;;;;;1.97;1.27;;;11.50;99.90;;;;;;8403075;28;20207;-74
2023/04/01 14:47:27;;;;;;;1.63;1.30;;;11.10;1.00;;;;;;8397962;28;20219;-70
2023/04/01 14:51:28;;;;;;;3.03;1.87;;;10.60;99.90;;;;;;8401042;28;20218;-69
2023/04/01 14:55:53;;;;;;;1.60;1.40;;;10.40;1.00;;;;;;8400799;28;20290;-70
2023/04/01 15:00:00;;;;;;;2.87;1.93;;;10.50;99.90;;;;;;8413797;28;20622;-69
2023/04/01 15:04:19;;;;;;;2.77;1.60;;;10.70;39.20;;;;;;8401181;28;20215;-69
2023/04/01 15:08:29;;;;;;;3.23;1.90;;;10.60;1.00;;;;;;8385713;28;20212;-69
2023/04/01 15:12:44;;;;;;;7.13;5.63;;;10.70;99.90;;;;;;8384917;28;20218;-71
2023/04/01 15:17:32;;;;;;;11.43;9.10;;;10.70;99.90;;;;;;8380363;28;20582;-71
2023/04/01 15:21:48;;;;;;;2.97;2.50;;;10.80;99.90;;;;;;8235666;28;20269;-72
2023/04/01 15:26:11;;;;;;;4.27;2.70;;;10.70;99.90;;;;;;8326912;28;20216;-70
2023/04/01 15:30:23;;;;;;;5.13;2.00;;;10.70;1.00;;;;;;8386111;28;20565;-71
2023/04/01 15:34:42;;;;;;;2.97;2.47;;;10.70;99.90;;;;;;8390949;28;20569;-70
2023/04/01 15:38:43;;;;;;;2.90;2.30;;;10.70;99.90;;;;;;8399797;28;20267;-71
2023/04/01 15:42:53;;;;;;;5.03;3.23;;;10.70;99.90;;;;;;8404775;28;20188;-70
2023/04/01 15:46:56;;;;;;;2.23;1.90;;;10.70;1.00;;;;;;8383965;28;20208;-70
2023/04/01 15:51:23;;;;;;;2.83;1.70;;;10.70;1.00;;;;;;8384436;28;20833;-70
2023/04/01 15:55:31;;;;;;;2.93;1.90;;;10.60;1.00;;;;;;8403511;28;20185;-70
2023/04/01 16:00:16;;;;;;;3.47;2.20;;;10.50;1.00;;;;;;8401227;28;20183;-70
2023/04/01 16:04:45;;;;;;;3.70;2.10;;;10.30;99.90;;;;;;8378901;28;20191;-70
2023/04/01 16:09:13;;;;;;;3.43;3.13;;;10.30;99.90;;;;;;8383859;28;20201;-70
2023/04/01 16:13:14;;;;;;;3.73;3.43;;;10.30;1.00;;;;;;8383828;28;20199;-68
2023/04/01 16:17:28;;;;;;;5.97;4.63;;;10.30;1.00;;;;;;8399737;28;20368;-70
2023/04/01 16:21:45;;;;;;;7.50;4.97;;;10.30;99.90;;;;;;8384633;28;20190;-70
2023/04/01 16:26:01;;;;;;;9.00;5.57;;;10.30;99.90;;;;;;8388149;28;20317;-70
2023/04/01 16:30:37;;;;;;;6.67;4.30;;;10.30;99.90;;;;;;8407429;28;20236;-70
2023/04/01 16:34:56;;;;;;;8.23;5.80;;;10.40;99.90;;;;;;8393355;28;20719;-70
2023/04/01 16:39:40;;;;;;;60.70;39.77;;;10.40;99.90;;;;;;8365705;28;20241;-70
2023/04/01 16:43:47;;;;;;;20.37;14.00;;;10.50;99.90;;;;;;8323365;28;20245;-72
2023/04/01 16:47:55;;;;;;;23.67;17.43;;;10.50;99.90;;;;;;8337121;28;20232;-71
2023/04/01 16:52:08;;;;;;;21.97;15.97;;;10.50;99.90;;;;;;8336465;28;20192;-71
2023/04/01 16:56:14;;;;;;;10.83;8.27;;;10.40;99.90;;;;;;8328931;28;20741;-70
2023/04/01 17:00:27;;;;;;;15.90;11.97;;;10.30;99.90;;;;;;8339222;28;20185;-71
2023/04/01 17:04:38;;;;;;;11.57;9.20;;;10.20;99.90;;;;;;8325437;28;20340;-71
2023/04/01 17:09:06;;;;;;;101.07;53.07;;;10.10;99.90;;;;;;8326698;28;20196;-71
2023/04/01 17:13:36;;;;;;;90.93;62.87;;;10.10;99.90;;;;;;8327234;28;20232;-75
2023/04/01 17:17:59;;;;;;;51.40;34.43;;;10.10;99.90;;;;;;8327205;28;20200;-71
2023/04/01 17:22:33;;;;;;;15.70;12.53;;;10.00;99.90;;;;;;8325177;28;20378;-71
2023/04/01 17:26:42;;;;;;;17.67;12.30;;;10.00;99.90;;;;;;8328486;28;20665;-72
2023/04/01 17:31:02;;;;;;;15.77;12.67;;;9.90;99.90;;;;;;8325319;28;20244;-71
2023/04/01 17:35:23;;;;;;;16.60;11.57;;;9.80;99.90;;;;;;8325061;28;20226;-71
2023/04/01 17:39:56;;;;;;;23.60;16.90;;;9.70;99.90;;;;;;8328603;28;20180;-70
2023/04/01 17:44:21;;;;;;;33.23;23.67;;;9.70;99.90;;;;;;8322209;28;20233;-69
2023/04/01 17:48:46;;;;;;;40.53;28.57;;;9.80;99.90;;;;;;8305088;28;20235;-70
2023/04/01 17:53:20;;;;;;;46.47;31.17;;;9.80;99.90;;;;;;8323770;28;20216;-69
2023/04/01 17:57:48;;;;;;;31.37;21.23;;;9.80;99.90;;;;;;8383195;28;20229;-67
2023/04/01 18:02:12;;;;;;;47.20;31.23;;;9.80;99.90;;;;;;8365869;28;20193;-66
2023/04/01 18:06:51;;;;;;;50.30;32.67;;;9.70;99.90;;;;;;8354424;28;20293;-67
2023/04/01 18:11:11;;;;;;;47.43;30.93;;;9.60;99.90;;;;;;8326406;28;20190;-67
2023/04/01 18:15:28;;;;;;;56.33;32.17;;;9.60;99.90;;;;;;8365052;28;20199;-67
2023/04/01 18:19:58;;;;;;;173.30;89.43;;;9.50;99.90;;;;;;8357129;28;20257;-67
2023/04/01 18:24:03;;;;;;;53.97;31.63;;;9.50;99.90;;;;;;8353079;28;20706;-67
2023/04/01 18:28:24;;;;;;;36.73;23.50;;;9.50;99.90;;;;;;8367026;28;20222;-67
2023/04/01 18:32:51;;;;;;;39.77;26.07;;;9.50;99.90;;;;;;8359802;28;20188;-68
2023/04/01 18:37:24;;;;;;;56.07;36.00;;;9.40;99.90;;;;;;8325032;28;20232;-68
2023/04/01 18:41:43;;;;;;;67.23;38.73;;;9.40;99.90;;;;;;8325503;28;20381;-68
2023/04/01 18:46:16;;;;;;;52.80;30.87;;;9.40;99.90;;;;;;8330020;28;20218;-67
2023/04/01 18:50:29;;;;;;;66.93;38.87;;;9.30;99.90;;;;;;8330924;28;20179;-67
2023/04/01 18:54:47;;;;;;;94.97;55.17;;;9.30;99.90;;;;;;8337064;28;20208;-69
2023/04/01 18:58:49;;;;;;;33.50;23.80;;;9.20;99.90;;;;;;8341330;28;20573;-68
2023/04/01 19:03:18;;;;;;;39.70;23.80;;;9.20;99.90;;;;;;8339297;28;20187;-69
2023/04/01 19:07:41;;;;;;;39.77;26.63;;;9.10;99.90;;;;;;8340671;28;20283;-70
2023/04/01 19:11:55;;;;;;;45.73;31.13;;;9.10;99.90;;;;;;8341960;28;20183;-69
2023/04/01 19:16:17;;;;;;;73.00;47.80;;;9.10;99.90;;;;;;8339452;28;20199;-69
2023/04/01 19:20:37;;;;;;;41.93;29.43;;;9.00;99.90;;;;;;8343684;28;20181;-69
2023/04/01 19:25:04;;;;;;;41.10;27.63;;;9.00;99.90;;;;;;8338135;28;20183;-69
2023/04/01 19:29:24;;;;;;;37.67;25.33;;;9.00;99.90;;;;;;8340070;28;20195;-69
2023/04/01 19:33:34;;;;;;;39.00;27.27;;;8.90;99.90;;;;;;8334455;28;20191;-69
2023/04/01 19:38:07;;;;;;;38.53;23.27;;;8.80;99.90;;;;;;8333697;28;20206;-69
2023/04/01 19:42:24;;;;;;;36.13;24.10;;;8.80;99.90;;;;;;8340313;28;20182;-69
2023/04/01 19:46:41;;;;;;;34.43;22.47;;;8.70;99.90;;;;;;8327957;28;20214;-68
2023/04/01 19:50:51;;;;;;;32.67;21.70;;;8.60;99.90;;;;;;8339921;28;20170;-68
2023/04/01 19:55:00;;;;;;;38.77;27.53;;;8.60;99.90;;;;;;8343589;28;20175;-68
2023/04/01 19:59:09;;;;;;;49.97;32.53;;;8.50;99.90;;;;;;8334626;28;20279;-68
2023/04/01 20:03:50;;;;;;;40.03;26.57;;;8.50;99.90;;;;;;8341885;28;21434;-68
2023/04/01 20:08:01;;;;;;;33.53;23.40;;;8.50;99.90;;;;;;8341692;28;20217;-69
2023/04/01 20:12:26;;;;;;;33.50;23.53;;;8.50;99.90;;;;;;8341030;28;20193;-70
2023/04/01 20:16:59;;;;;;;24.33;17.90;;;8.40;99.90;;;;;;8348772;28;20356;-69
2023/04/01 20:21:05;;;;;;;25.23;18.33;;;8.40;99.90;;;;;;8336519;28;20186;-70
2023/04/01 20:25:32;;;;;;;23.07;18.03;;;8.30;99.90;;;;;;8337493;28;20201;-70
2023/04/01 20:29:52;;;;;;;23.03;17.30;;;8.20;99.90;;;;;;8335371;28;20181;-70
2023/04/01 20:34:00;;;;;;;26.33;19.57;;;8.20;99.90;;;;;;8335635;28;20178;-69
2023/04/01 20:38:34;;;;;;;25.90;20.27;;;8.10;99.90;;;;;;8328651;28;20628;-69
2023/04/01 20:42:41;;;;;;;26.03;19.77;;;8.10;99.90;;;;;;8349622;28;20193;-70
2023/04/01 20:46:57;;;;;;;23.17;18.47;;;8.00;99.90;;;;;;8331498;28;20205;-70
2023/04/01 20:50:58;;;;;;;24.90;19.70;;;7.90;99.90;;;;;;8335633;28;20183;-70
2023/04/01 20:55:15;;;;;;;29.67;22.20;;;7.90;99.90;;;;;;8339469;28;20757;-69
2023/04/01 20:59:32;;;;;;;24.97;19.70;;;7.90;99.90;;;;;;8334238;28;20183;-69
2023/04/01 21:03:45;;;;;;;53.67;35.50;;;7.90;99.90;;;;;;8342225;28;20178;-69
2023/04/01 21:07:58;;;;;;;29.00;22.30;;;7.90;99.90;;;;;;8334751;28;20262;-69
2023/04/01 21:12:27;;;;;;;20.53;16.63;;;7.80;99.90;;;;;;8352766;28;20426;-70
2023/04/01 21:17:04;;;;;;;28.50;22.13;;;7.70;99.90;;;;;;8332016;28;20182;-69
2023/04/01 21:21:31;;;;;;;35.10;28.60;;;7.60;99.90;;;;;;8325479;28;20289;-70
2023/04/01 21:25:38;;;;;;;25.03;18.23;;;7.50;99.90;;;;;;8334345;28;20275;-69
2023/04/01 21:29:58;;;;;;;35.53;22.07;;;7.40;99.90;;;;;;8332763;28;20193;-69
2023/04/01 21:34:17;;;;;;;35.07;21.90;;;7.40;99.90;;;;;;8331618;28;20232;-69
2023/04/01 21:38:36;;;;;;;41.80;27.87;;;7.30;99.90;;;;;;8336208;28;20225;-71
2023/04/01 21:42:49;;;;;;;46.83;31.93;;;7.20;99.90;;;;;;8330931;28;20197;-71
2023/04/01 21:47:32;;;;;;;31.60;22.63;;;7.20;99.90;;;;;;8327550;28;20252;-70
2023/04/01 21:51:54;;;;;;;23.67;16.17;;;7.10;99.90;;;;;;8331077;28;20269;-69
2023/04/01 21:56:45;;;;;;;29.77;22.80;;;7.10;99.90;;;;;;8336844;28;20189;-70
2023/04/01 22:01:17;;;;;;;20.47;15.80;;;7.10;99.90;;;;;;8304892;28;20212;-70
2023/04/01 22:05:54;;;;;;;19.20;14.90;;;7.00;99.90;;;;;;8336955;28;20209;-68
2023/04/01 22:10:24;;;;;;;30.47;19.73;;;7.00;99.90;;;;;;8345695;28;20190;-68
2023/04/01 22:14:45;;;;;;;27.80;18.00;;;6.90;99.90;;;;;;8321345;28;20206;-68